Blakesburg, IA (52536)

7:35 AM CDT on September 04, 2015 (GMT -0500)
Ottumwa | | Change Station
CLOSE
Current Station
Personal Weather Station
Location: Ottumwa, IA
Elevation: 675 ft
Nearby Weather Stations

Elev 675 ft 41.00 °N, 92.44 °W | Updated 21 seconds ago

Clear
Clear
70.7 °F
Feels Like 70.7 °F
N
0.0
Wind Variable Wind from NNW
Gusts 0.0 mph

Today
High -- | Low -- °F
--% Chance of Precip.
Yesterday
High -- | Low -- °F
Precip. -- in
6:40 AM 7:38 PM
Waning Gibbous, 60% visible
Pressure 29.92 in
Visibility 10.0 miles
Clouds Clear
Dew Point 67 °F
Humidity 89%
Rainfall 0.00 in
Snow Depth Not available.
UV 1.0 out of 12
Pollen 11.30 out of 12
Air Quality Not available.
Flu Activity Not available.
METAR KOTM 041153Z AUTO 18005KT 10SM CLR 21/20 A2994 RMK AO2 SLP132 T02060200 10228 20206 52005 TSNO
Pressure 29.92 in
Visibility 10.0 miles
Clouds Clear
Dew Point 67 °F
Humidity 89%
Rainfall 0.00 in
Snow Depth Not available.
UV 1.0 out of 12
Pollen 11.30 out of 12
Air Quality Not available.
Flu Activity Not available.
METAR KOTM 041153Z AUTO 18005KT 10SM CLR 21/20 A2994 RMK AO2 SLP132 T02060200 10228 20206 52005 TSNO

10-Day Weather Forecast

×

Almanac

Astronomy

Sep. 04, 2015 Rise Set
Actual Time
Civil Twilight
Nautical Twilight
Astronomical Twilight
Moon
Length of Visible Light
Length of Day
Tomorrow will be .
, % of the Moon is Illuminated

Today's Extremes

State Highs State Lows

Community

WunderPhotos

Upload Photos

1,852,170 photos uploaded!

WunderBlogs® & News

Nearby

Air Quality

  Air Quality AQ Index Pollutant
Not available.

Snow Depth

Station Depth Elevation

Earthquake Activity

City Distance Mag. Time & Date
Minimum magnitude displayed is 2.5.

Coastal Water Temperatures

Place Temperature

Stations

Nearby Weather Stations

Station Location Temp. Windchill Dew Point Humidity Wind Precip. Elev Updated Type